createdAt,value
2019-02-21T00:00:34.398Z,434.41
2019-02-21T00:01:34.449Z,433.14
2019-02-21T00:02:34.369Z,440.86
2019-02-21T00:03:34.363Z,430.01
2019-02-21T00:04:34.358Z,433.67
2019-02-21T00:05:34.327Z,434.08
2019-02-21T00:06:34.326Z,432.60
2019-02-21T00:07:34.356Z,433.58
2019-02-21T00:08:34.303Z,430.47
2019-02-21T00:09:34.302Z,436.18
2019-02-21T00:10:34.281Z,431.67
2019-02-21T00:11:34.268Z,430.21
2019-02-21T00:12:34.263Z,430.53
2019-02-21T00:13:34.260Z,431.69
2019-02-21T00:14:34.231Z,431.78
2019-02-21T00:15:34.303Z,431.93
2019-02-21T00:16:34.212Z,430.00
2019-02-21T00:17:34.234Z,430.18
2019-02-21T00:18:34.203Z,431.08
2019-02-21T00:19:34.199Z,431.23
2019-02-21T00:20:34.169Z,434.02
2019-02-21T00:21:34.162Z,433.61
2019-02-21T00:22:34.157Z,431.20
2019-02-21T00:23:34.145Z,432.92
2019-02-21T00:24:34.153Z,428.96
2019-02-21T00:25:34.116Z,433.78
2019-02-21T00:26:34.105Z,429.36
2019-02-21T00:27:34.094Z,433.85
2019-02-21T00:28:34.100Z,432.76
2019-02-21T00:29:34.076Z,433.63
2019-02-21T00:30:35.514Z,435.21
2019-02-21T00:31:34.051Z,429.36
2019-02-21T00:32:34.046Z,431.13
2019-02-21T00:33:34.061Z,439.16
2019-02-21T00:34:34.013Z,433.13
2019-02-21T00:35:34.008Z,430.46
2019-02-21T00:36:34.000Z,427.47
2019-02-21T00:37:33.978Z,433.68
2019-02-21T00:38:33.973Z,432.73
2019-02-21T00:39:33.978Z,433.03
2019-02-21T00:40:33.950Z,432.30
2019-02-21T00:41:33.951Z,434.28
2019-02-21T00:42:33.948Z,430.01
2019-02-21T00:43:33.960Z,435.34
2019-02-21T00:44:33.917Z,430.61
2019-02-21T00:45:33.904Z,432.10
2019-02-21T00:46:33.875Z,428.89
2019-02-21T00:47:33.869Z,429.54
2019-02-21T00:48:33.867Z,429.30
2019-02-21T00:49:33.889Z,434.92
2019-02-21T00:50:33.854Z,432.22
2019-02-21T00:51:33.834Z,434.67
2019-02-21T00:52:33.824Z,434.28
2019-02-21T00:53:33.823Z,428.72
2019-02-21T00:54:33.823Z,431.35
2019-02-21T00:55:33.797Z,431.24
2019-02-21T00:56:33.782Z,429.36
2019-02-21T00:57:33.768Z,431.18
2019-02-21T00:58:33.751Z,434.17
2019-02-21T00:59:33.757Z,432.08
2019-02-21T01:00:33.725Z,433.61
2019-02-21T01:01:33.729Z,429.87
2019-02-21T01:02:33.723Z,431.64
2019-02-21T01:03:33.711Z,432.41
2019-02-21T01:04:33.736Z,428.80
2019-02-21T01:05:33.680Z,427.94
2019-02-21T01:06:33.667Z,428.74
2019-02-21T01:07:33.667Z,430.94
2019-02-21T01:08:33.657Z,430.09
2019-02-21T01:09:33.641Z,431.39
2019-02-21T01:10:33.646Z,427.79
2019-02-21T01:11:33.611Z,428.44
2019-02-21T01:12:33.617Z,427.26
2019-02-21T01:13:33.597Z,430.90
2019-02-21T01:14:33.592Z,430.97
2019-02-21T01:15:33.613Z,430.30
2019-02-21T01:16:33.566Z,432.47
2019-02-21T01:17:33.552Z,430.38
2019-02-21T01:18:33.543Z,429.84
2019-02-21T01:19:33.526Z,432.27
2019-02-21T01:20:33.516Z,429.56
2019-02-21T01:21:33.641Z,434.06
2019-02-21T01:22:33.494Z,431.74
2019-02-21T01:23:33.480Z,432.18
2019-02-21T01:24:33.467Z,430.20
2019-02-21T01:25:33.484Z,433.16
2019-02-21T01:26:33.493Z,430.98
2019-02-21T01:27:33.447Z,433.40
2019-02-21T01:28:33.431Z,430.40
2019-02-21T01:29:33.458Z,429.92
2019-02-21T01:30:33.406Z,428.94
2019-02-21T01:31:33.392Z,430.81
2019-02-21T01:32:33.399Z,432.01
2019-02-21T01:33:33.379Z,429.75
2019-02-21T01:34:33.374Z,431.59
2019-02-21T01:35:33.361Z,431.03
2019-02-21T01:36:33.344Z,430.83
2019-02-21T01:37:33.346Z,430.14
2019-02-21T01:38:33.313Z,432.29
2019-02-21T01:39:33.314Z,428.90
2019-02-21T01:40:33.306Z,434.10
2019-02-21T01:41:33.289Z,430.29
2019-02-21T01:42:33.304Z,431.30
2019-02-21T01:43:33.263Z,433.60
2019-02-21T01:44:33.261Z,433.28
2019-02-21T01:45:33.248Z,429.88
2019-02-21T01:46:33.237Z,428.94
2019-02-21T01:47:33.227Z,436.49
2019-02-21T01:48:33.225Z,432.23
2019-02-21T01:49:33.202Z,430.22
2019-02-21T01:50:33.185Z,429.62
2019-02-21T01:51:33.169Z,431.04
2019-02-21T01:52:33.160Z,428.64
2019-02-21T01:53:33.183Z,429.55
2019-02-21T01:54:33.148Z,426.66
2019-02-21T01:55:33.128Z,431.12
2019-02-21T01:56:33.119Z,425.46
2019-02-21T01:57:33.115Z,430.83
2019-02-21T01:58:33.110Z,427.86
2019-02-21T01:59:33.116Z,427.70
2019-02-21T02:00:33.087Z,429.30
2019-02-21T02:01:33.076Z,426.14
2019-02-21T02:02:33.055Z,430.64
2019-02-21T02:03:33.065Z,428.06
2019-02-21T02:04:33.055Z,430.48
2019-02-21T02:05:33.035Z,430.05
2019-02-21T02:06:33.017Z,430.22
2019-02-21T02:07:33.058Z,427.85
2019-02-21T02:08:32.994Z,427.39
2019-02-21T02:09:32.997Z,430.39
2019-02-21T02:10:32.966Z,425.76
2019-02-21T02:11:32.967Z,428.61
2019-02-21T02:12:32.952Z,427.22
2019-02-21T02:13:32.940Z,428.16
2019-02-21T02:14:32.943Z,424.05
2019-02-21T02:15:32.921Z,427.94
2019-02-21T02:16:32.903Z,430.74
2019-02-21T02:17:32.912Z,432.25
2019-02-21T02:18:32.887Z,430.10
2019-02-21T02:19:32.902Z,426.86
2019-02-21T02:20:32.885Z,427.34
2019-02-21T02:21:32.863Z,426.54
2019-02-21T02:22:32.838Z,426.82
2019-02-21T02:23:32.840Z,428.44
2019-02-21T02:24:32.819Z,426.72
2019-02-21T02:25:32.840Z,427.99
2019-02-21T02:26:32.801Z,429.55
2019-02-21T02:27:32.783Z,423.98
2019-02-21T02:28:32.772Z,424.82
2019-02-21T02:29:32.768Z,426.89
2019-02-21T02:30:32.784Z,425.61
2019-02-21T02:31:32.751Z,429.41
2019-02-21T02:32:32.735Z,426.83
2019-02-21T02:33:32.719Z,429.37
2019-02-21T02:34:32.778Z,429.67
2019-02-21T02:35:32.723Z,427.70
2019-02-21T02:36:32.691Z,427.29
2019-02-21T02:37:32.681Z,432.91
2019-02-21T02:38:32.674Z,432.36
2019-02-21T02:39:32.663Z,429.71
2019-02-21T02:40:32.646Z,427.77
2019-02-21T02:41:32.661Z,426.86
2019-02-21T02:42:32.620Z,433.46
2019-02-21T02:43:32.617Z,428.51
2019-02-21T02:44:32.603Z,427.17
2019-02-21T02:45:32.580Z,429.63
2019-02-21T02:46:32.602Z,428.74
2019-02-21T02:47:32.587Z,433.16
2019-02-21T02:48:32.571Z,428.69
2019-02-21T02:49:32.548Z,432.03
2019-02-21T02:50:32.532Z,425.54
2019-02-21T02:51:32.522Z,429.36
2019-02-21T02:52:32.533Z,428.92
2019-02-21T02:53:32.496Z,430.20
2019-02-21T02:54:32.482Z,428.05
2019-02-21T02:55:32.472Z,427.52
2019-02-21T02:56:32.466Z,429.41
2019-02-21T02:57:32.485Z,426.80
2019-02-21T02:58:32.458Z,428.41
2019-02-21T02:59:40.869Z,427.70
2019-02-21T03:00:33.419Z,425.13
2019-02-21T03:01:34.989Z,428.92
2019-02-21T03:02:32.424Z,428.22
2019-02-21T03:03:32.396Z,423.01
2019-02-21T03:04:32.414Z,427.35
2019-02-21T03:05:32.369Z,426.66
2019-02-21T03:06:32.355Z,428.02
2019-02-21T03:07:32.366Z,425.98
2019-02-21T03:08:32.347Z,427.71
2019-02-21T03:09:32.338Z,425.97
2019-02-21T03:10:32.316Z,429.25
2019-02-21T03:11:32.301Z,425.16
2019-02-21T03:12:32.329Z,426.51
2019-02-21T03:13:32.283Z,425.19
2019-02-21T03:14:32.266Z,425.63
2019-02-21T03:15:32.279Z,427.90
2019-02-21T03:16:32.252Z,430.04
2019-02-21T03:17:32.237Z,425.98
2019-02-21T03:18:32.261Z,424.89
2019-02-21T03:19:32.214Z,427.81
2019-02-21T03:20:32.195Z,428.07
2019-02-21T03:21:32.208Z,426.76
2019-02-21T03:22:32.191Z,429.32
2019-02-21T03:23:32.179Z,428.11
2019-02-21T03:24:32.435Z,426.14
2019-02-21T03:25:32.154Z,423.31
2019-02-21T03:26:32.135Z,425.68
2019-02-21T03:27:32.127Z,427.29
2019-02-21T03:28:32.140Z,426.92
2019-02-21T03:29:32.110Z,425.13
2019-02-21T03:30:32.112Z,428.31
2019-02-21T03:31:32.308Z,427.89
2019-02-21T03:32:32.066Z,428.07
2019-02-21T03:33:32.074Z,426.72
2019-02-21T03:34:32.093Z,429.04
2019-02-21T03:35:32.051Z,425.70
2019-02-21T03:36:32.044Z,433.26
2019-02-21T03:37:32.013Z,425.06
2019-02-21T03:38:35.158Z,425.66
2019-02-21T03:39:32.020Z,428.73
2019-02-21T03:40:31.976Z,426.51
2019-02-21T03:41:31.978Z,426.14
2019-02-21T03:42:31.978Z,431.86
2019-02-21T03:43:31.954Z,425.63
2019-02-21T03:44:31.946Z,427.81
2019-02-21T03:45:31.953Z,424.17
2019-02-21T03:46:31.923Z,428.33
2019-02-21T03:47:31.915Z,425.14
2019-02-21T03:48:31.907Z,426.37
2019-02-21T03:49:31.893Z,427.83
2019-02-21T03:50:31.895Z,427.30
2019-02-21T03:51:31.859Z,427.95
2019-02-21T03:52:31.855Z,424.95
2019-02-21T03:53:31.847Z,424.15
2019-02-21T03:54:31.841Z,426.30
2019-02-21T03:55:31.856Z,425.50
2019-02-21T03:56:31.815Z,425.14
2019-02-21T03:57:31.794Z,429.07
2019-02-21T03:58:31.784Z,426.30
2019-02-21T03:59:31.770Z,428.68
2019-02-21T04:00:31.762Z,424.42
2019-02-21T04:01:31.800Z,427.57
2019-02-21T04:02:31.763Z,432.58
2019-02-21T04:03:31.738Z,427.12
2019-02-21T04:04:31.721Z,431.28
2019-02-21T04:05:31.721Z,425.60
2019-02-21T04:06:31.698Z,422.83
2019-02-21T04:07:31.718Z,428.05
2019-02-21T04:08:31.680Z,426.91
2019-02-21T04:09:31.669Z,425.89
2019-02-21T04:10:31.652Z,428.95
2019-02-21T04:11:31.675Z,426.01
2019-02-21T04:12:31.632Z,427.73
2019-02-21T04:13:31.628Z,428.26
2019-02-21T04:14:31.615Z,429.75
2019-02-21T04:15:31.597Z,430.34
2019-02-21T04:16:31.599Z,425.81
2019-02-21T04:17:31.606Z,427.66
2019-02-21T04:18:31.563Z,426.02
2019-02-21T04:19:31.559Z,431.50
2019-02-21T04:20:31.545Z,440.96
2019-02-21T04:21:31.530Z,436.83
2019-02-21T04:22:31.518Z,434.73
2019-02-21T04:23:31.531Z,427.97
2019-02-21T04:24:31.497Z,424.85
2019-02-21T04:25:31.498Z,430.36
2019-02-21T04:26:31.481Z,427.16
2019-02-21T04:27:31.478Z,429.47
2019-02-21T04:28:31.489Z,425.70
2019-02-21T04:29:31.451Z,425.95
2019-02-21T04:30:31.437Z,430.05
2019-02-21T04:31:31.431Z,427.92
2019-02-21T04:32:31.417Z,425.90
2019-02-21T04:33:34.142Z,429.60
2019-02-21T04:34:31.401Z,426.92
2019-02-21T04:35:31.384Z,425.65
2019-02-21T04:36:31.364Z,430.85
2019-02-21T04:37:31.366Z,423.96
2019-02-21T04:38:31.351Z,426.34
2019-02-21T04:39:31.359Z,429.85
2019-02-21T04:40:31.331Z,432.00
2019-02-21T04:41:31.327Z,425.96
2019-02-21T04:42:31.300Z,427.67
2019-02-21T04:43:31.315Z,436.69
2019-02-21T04:44:31.280Z,428.95
2019-02-21T04:45:31.278Z,433.49
2019-02-21T04:46:31.269Z,427.88
2019-02-21T04:47:31.268Z,428.96
2019-02-21T04:48:31.267Z,428.70
2019-02-21T04:49:31.222Z,429.30
2019-02-21T04:50:31.226Z,425.50
2019-02-21T04:51:31.207Z,423.64
2019-02-21T04:52:31.211Z,425.10
2019-02-21T04:53:31.194Z,424.46
2019-02-21T04:54:31.185Z,424.68
2019-02-21T04:55:31.166Z,436.66
2019-02-21T04:56:31.147Z,424.55
2019-02-21T04:57:31.177Z,425.53
2019-02-21T04:58:31.210Z,424.00
2019-02-21T04:59:31.125Z,428.85
2019-02-21T05:00:31.113Z,424.22
2019-02-21T05:01:31.097Z,426.46
2019-02-21T05:02:31.095Z,436.33
2019-02-21T05:03:31.106Z,426.69
2019-02-21T05:04:31.070Z,427.85
2019-02-21T05:05:31.064Z,429.34
2019-02-21T05:06:31.053Z,429.79
2019-02-21T05:07:31.037Z,424.71
2019-02-21T05:08:31.024Z,427.79
2019-02-21T05:09:31.037Z,426.47
2019-02-21T05:10:31.032Z,423.68
2019-02-21T05:11:30.995Z,424.41
2019-02-21T05:12:30.977Z,428.02
2019-02-21T05:13:33.564Z,425.96
2019-02-21T05:14:30.965Z,427.93
2019-02-21T05:15:30.938Z,431.47
2019-02-21T05:16:30.926Z,427.63
2019-02-21T05:17:30.928Z,427.83
2019-02-21T05:18:30.917Z,426.13
2019-02-21T05:19:30.919Z,428.85
2019-02-21T05:20:30.895Z,423.09
2019-02-21T05:21:30.907Z,429.72
2019-02-21T05:22:30.862Z,429.70
2019-02-21T05:23:30.867Z,426.40
2019-02-21T05:24:30.848Z,432.23
2019-02-21T05:25:30.827Z,436.27
2019-02-21T05:26:30.819Z,432.65
2019-02-21T05:27:30.830Z,432.11
2019-02-21T05:28:30.805Z,437.91
2019-02-21T05:29:30.800Z,432.67
2019-02-21T05:30:30.948Z,441.21
2019-02-21T05:31:30.789Z,438.18
2019-02-21T05:32:40.510Z,430.36
2019-02-21T05:33:31.738Z,428.39
2019-02-21T05:34:30.757Z,433.92
2019-02-21T05:35:31.439Z,439.04
2019-02-21T05:36:30.714Z,438.06
2019-02-21T05:37:30.719Z,429.09
2019-02-21T05:38:30.721Z,431.17
2019-02-21T05:39:30.683Z,442.25
2019-02-21T05:40:30.672Z,441.28
2019-02-21T05:41:30.686Z,433.18
2019-02-21T05:42:30.667Z,430.33
2019-02-21T05:43:31.568Z,424.32
2019-02-21T05:44:33.424Z,429.32
2019-02-21T05:45:30.618Z,432.72
2019-02-21T05:46:30.621Z,433.49
2019-02-21T05:47:30.587Z,435.40
2019-02-21T05:48:30.588Z,428.35
2019-02-21T05:49:30.590Z,443.03
2019-02-21T05:50:30.573Z,431.66
2019-02-21T05:51:30.562Z,433.81
2019-02-21T05:52:30.566Z,430.20
2019-02-21T05:53:30.529Z,430.44
2019-02-21T05:54:30.528Z,423.77
2019-02-21T05:55:30.512Z,426.76
2019-02-21T05:56:30.505Z,432.65
2019-02-21T05:57:30.490Z,427.99
2019-02-21T05:58:30.929Z,428.70
2019-02-21T05:59:30.457Z,432.88
2019-02-21T06:00:30.460Z,426.67
2019-02-21T06:01:30.451Z,426.93
2019-02-21T06:02:30.463Z,429.11
2019-02-21T06:03:30.423Z,425.46
2019-02-21T06:04:30.419Z,425.01
2019-02-21T06:05:30.405Z,434.11
2019-02-21T06:06:30.402Z,435.29
2019-02-21T06:07:30.643Z,439.19
2019-02-21T06:08:30.371Z,449.86
2019-02-21T06:09:30.357Z,462.02
2019-02-21T06:10:30.357Z,444.56
2019-02-21T06:11:30.360Z,431.96
2019-02-21T06:12:33.631Z,441.12
2019-02-21T06:13:30.320Z,433.62
2019-02-21T06:14:30.319Z,427.63
2019-02-21T06:15:30.285Z,425.69
2019-02-21T06:16:32.698Z,427.48
2019-02-21T06:17:30.638Z,428.49
2019-02-21T06:18:30.399Z,437.49
2019-02-21T06:19:30.262Z,433.71
2019-02-21T06:20:30.246Z,426.29
2019-02-21T06:21:30.231Z,434.58
2019-02-21T06:22:30.229Z,431.68
2019-02-21T06:23:30.224Z,432.42
2019-02-21T06:24:30.226Z,429.46
2019-02-21T06:25:30.563Z,431.59
2019-02-21T06:26:30.191Z,424.22
2019-02-21T06:27:30.165Z,433.09
2019-02-21T06:28:30.198Z,440.72
2019-02-21T06:29:30.145Z,426.89
2019-02-21T06:30:30.149Z,432.04
2019-02-21T06:31:30.128Z,430.42
2019-02-21T06:32:30.099Z,431.20
2019-02-21T06:33:30.108Z,429.39
2019-02-21T06:34:31.779Z,424.97
2019-02-21T06:35:30.078Z,429.99
2019-02-21T06:36:30.234Z,429.51
2019-02-21T06:37:30.046Z,425.08
2019-02-21T06:38:30.038Z,421.41
2019-02-21T06:39:30.022Z,427.77
2019-02-21T06:40:30.013Z,433.18
2019-02-21T06:41:30.138Z,426.73
2019-02-21T06:42:30.008Z,429.84
2019-02-21T06:43:29.982Z,427.10
2019-02-21T06:44:29.997Z,431.68
2019-02-21T06:45:29.965Z,435.83
2019-02-21T06:46:29.980Z,429.22
2019-02-21T06:47:29.967Z,426.11
2019-02-21T06:48:29.953Z,425.42
2019-02-21T06:49:32.804Z,431.43
2019-02-21T06:50:29.900Z,428.29
2019-02-21T06:51:29.975Z,428.27
2019-02-21T06:52:29.891Z,437.16
2019-02-21T06:53:29.883Z,423.60
2019-02-21T06:54:29.866Z,438.24
2019-02-21T06:55:29.883Z,434.30
2019-02-21T06:56:29.860Z,426.20
2019-02-21T06:57:29.845Z,425.95
2019-02-21T06:58:29.828Z,426.37
2019-02-21T06:59:29.851Z,428.70
2019-02-21T07:00:29.798Z,424.42
2019-02-21T07:01:29.878Z,431.11
2019-02-21T07:02:29.783Z,424.93
2019-02-21T07:03:29.763Z,427.99
2019-02-21T07:04:29.754Z,422.98
2019-02-21T07:05:29.751Z,431.89
2019-02-21T07:06:32.260Z,431.52
2019-02-21T07:07:29.765Z,431.73
2019-02-21T07:08:29.751Z,427.36
2019-02-21T07:09:29.694Z,432.82
2019-02-21T07:10:29.688Z,426.97
2019-02-21T07:11:29.671Z,422.29
2019-02-21T07:12:29.662Z,427.19
2019-02-21T07:13:29.683Z,421.76
2019-02-21T07:14:29.729Z,422.23
2019-02-21T07:15:29.631Z,427.76
2019-02-21T07:16:29.677Z,427.21
2019-02-21T07:17:29.622Z,419.62
2019-02-21T07:18:29.644Z,422.33
2019-02-21T07:19:29.595Z,423.87
2019-02-21T07:20:29.577Z,427.01
2019-02-21T07:21:29.565Z,430.39
2019-02-21T07:22:29.555Z,425.49
2019-02-21T07:23:40.610Z,422.04
2019-02-21T07:24:30.555Z,426.13
2019-02-21T07:25:29.532Z,422.64
2019-02-21T07:26:29.522Z,430.04
2019-02-21T07:27:29.521Z,426.75
2019-02-21T07:28:29.500Z,418.16
2019-02-21T07:29:29.514Z,419.02
2019-02-21T07:30:29.460Z,418.74
2019-02-21T07:31:32.433Z,423.40
2019-02-21T07:32:29.457Z,418.01
2019-02-21T07:33:29.441Z,424.73
2019-02-21T07:34:30.525Z,422.24
2019-02-21T07:35:29.430Z,420.35
2019-02-21T07:36:29.412Z,426.69
2019-02-21T07:37:29.399Z,426.76
2019-02-21T07:38:29.418Z,422.87
2019-02-21T07:39:36.138Z,420.32
2019-02-21T07:40:30.403Z,429.98
2019-02-21T07:41:29.345Z,424.88
2019-02-21T07:42:29.337Z,435.68
2019-02-21T07:43:29.328Z,421.10
2019-02-21T07:44:29.327Z,426.24
2019-02-21T07:45:29.304Z,418.72
2019-02-21T07:46:32.199Z,425.09
2019-02-21T07:47:29.271Z,431.24
2019-02-21T07:48:29.325Z,422.76
2019-02-21T07:49:29.294Z,421.24
2019-02-21T07:50:29.257Z,426.65
2019-02-21T07:51:29.244Z,420.46
2019-02-21T07:52:29.238Z,420.90
2019-02-21T07:53:29.217Z,418.95
2019-02-21T07:54:29.201Z,424.92
2019-02-21T07:55:29.214Z,428.64
2019-02-21T07:56:29.181Z,426.33
2019-02-21T07:57:29.187Z,422.78
2019-02-21T07:58:29.164Z,418.80
2019-02-21T07:59:29.161Z,434.60
2019-02-21T08:00:29.173Z,428.96
2019-02-21T08:01:29.122Z,435.13
2019-02-21T08:02:29.102Z,423.87
2019-02-21T08:03:32.152Z,427.36
2019-02-21T08:04:30.092Z,429.17
2019-02-21T08:05:29.082Z,426.87
2019-02-21T08:06:29.102Z,435.71
2019-02-21T08:07:29.055Z,427.04
2019-02-21T08:08:29.057Z,431.00
2019-02-21T08:09:29.044Z,426.18
2019-02-21T08:10:33.529Z,428.40
2019-02-21T08:11:30.043Z,430.17
2019-02-21T08:12:29.027Z,431.61
2019-02-21T08:13:28.990Z,428.31
2019-02-21T08:14:28.980Z,426.48
2019-02-21T08:15:28.965Z,430.85
2019-02-21T08:16:28.957Z,428.61
2019-02-21T08:17:28.982Z,420.82
2019-02-21T08:18:28.940Z,435.76
2019-02-21T08:19:28.921Z,420.20
2019-02-21T08:20:34.058Z,425.07
2019-02-21T08:21:29.938Z,429.84
2019-02-21T08:22:28.900Z,431.87
2019-02-21T08:23:28.914Z,436.39
2019-02-21T08:24:28.870Z,437.96
2019-02-21T08:25:28.857Z,436.15
2019-02-21T08:26:28.842Z,431.69
2019-02-21T08:27:28.849Z,435.57
2019-02-21T08:28:28.825Z,426.71
2019-02-21T08:29:28.842Z,432.12
2019-02-21T08:30:29.338Z,426.48
2019-02-21T08:31:28.804Z,436.77
2019-02-21T08:32:28.815Z,432.70
2019-02-21T08:33:28.773Z,430.25
2019-02-21T08:34:28.754Z,445.78
2019-02-21T08:35:28.755Z,441.41
2019-02-21T08:36:28.749Z,432.40
2019-02-21T08:37:28.720Z,425.70
2019-02-21T08:38:28.736Z,430.60
2019-02-21T08:39:28.700Z,436.52
2019-02-21T08:40:28.695Z,432.40
2019-02-21T08:41:28.690Z,427.80
2019-02-21T08:42:28.679Z,433.03
2019-02-21T08:43:28.693Z,431.08
2019-02-21T08:44:29.096Z,431.58
2019-02-21T08:45:28.633Z,432.14
2019-02-21T08:46:28.634Z,423.33
2019-02-21T08:47:28.618Z,435.76
2019-02-21T08:48:28.634Z,428.55
2019-02-21T08:49:28.612Z,429.83
2019-02-21T08:50:28.598Z,429.14
2019-02-21T08:51:28.574Z,432.45
2019-02-21T08:52:30.142Z,425.94
2019-02-21T08:53:28.570Z,434.13
2019-02-21T08:54:28.575Z,431.65
2019-02-21T08:55:28.545Z,423.81
2019-02-21T08:56:30.011Z,430.16
2019-02-21T08:57:28.506Z,424.89
2019-02-21T08:58:28.498Z,429.97
2019-02-21T08:59:28.504Z,431.00
2019-02-21T09:00:28.493Z,431.27
2019-02-21T09:01:28.469Z,421.17
2019-02-21T09:02:28.466Z,431.27
2019-02-21T09:03:28.443Z,427.92
2019-02-21T09:04:28.463Z,431.48
2019-02-21T09:05:28.418Z,428.67
2019-02-21T09:06:28.425Z,433.44
2019-02-21T09:07:28.403Z,433.41
2019-02-21T09:08:33.685Z,429.72
2019-02-21T09:09:29.389Z,429.13
2019-02-21T09:10:28.362Z,425.92
2019-02-21T09:11:28.370Z,431.02
2019-02-21T09:12:28.334Z,425.74
2019-02-21T09:13:28.347Z,425.94
2019-02-21T09:14:28.321Z,438.89
2019-02-21T09:15:28.312Z,426.45
2019-02-21T09:16:28.319Z,433.11
2019-02-21T09:17:28.289Z,434.38
2019-02-21T09:18:28.273Z,432.18
2019-02-21T09:19:30.543Z,430.13
2019-02-21T09:20:28.251Z,420.60
2019-02-21T09:21:28.274Z,426.35
2019-02-21T09:22:28.251Z,424.26
2019-02-21T09:23:28.215Z,426.81
2019-02-21T09:24:38.097Z,434.88
2019-02-21T09:25:29.201Z,428.16
2019-02-21T09:26:28.203Z,429.21
2019-02-21T09:27:28.205Z,430.57
2019-02-21T09:28:28.173Z,420.33
2019-02-21T09:29:28.146Z,429.47
2019-02-21T09:30:28.137Z,427.72
2019-02-21T09:31:28.127Z,429.95
2019-02-21T09:32:28.142Z,439.96
2019-02-21T09:33:28.113Z,423.31
2019-02-21T09:34:28.103Z,434.86
2019-02-21T09:35:28.094Z,432.14
2019-02-21T09:36:28.089Z,424.52
2019-02-21T09:37:28.067Z,425.07
2019-02-21T09:38:28.072Z,424.77
2019-02-21T09:39:28.050Z,419.46
2019-02-21T09:40:28.655Z,427.17
2019-02-21T09:41:28.763Z,426.69
2019-02-21T09:42:28.007Z,425.59
2019-02-21T09:43:28.014Z,426.11
2019-02-21T09:44:27.986Z,423.40
2019-02-21T09:45:27.984Z,432.71
2019-02-21T09:46:27.975Z,430.49
2019-02-21T09:47:27.957Z,423.44
2019-02-21T09:48:27.976Z,426.73
2019-02-21T09:49:27.935Z,431.77
2019-02-21T09:50:27.920Z,425.79
2019-02-21T09:51:27.929Z,425.35
2019-02-21T09:52:27.897Z,419.06
2019-02-21T09:53:27.897Z,424.22
2019-02-21T09:54:27.907Z,428.61
2019-02-21T09:55:29.758Z,434.96
2019-02-21T09:56:30.676Z,423.55
2019-02-21T09:57:27.858Z,427.17
2019-02-21T09:58:27.852Z,422.78
2019-02-21T09:59:28.792Z,421.58
2019-02-21T10:00:27.818Z,419.09
2019-02-21T10:01:27.805Z,425.25
2019-02-21T10:02:27.784Z,421.46
2019-02-21T10:03:27.786Z,430.20
2019-02-21T10:04:32.029Z,423.04
2019-02-21T10:05:27.757Z,432.35
2019-02-21T10:06:27.749Z,418.86
2019-02-21T10:07:27.738Z,420.66
2019-02-21T10:08:27.729Z,424.04
2019-02-21T10:09:27.711Z,423.37
2019-02-21T10:10:27.723Z,427.29
2019-02-21T10:11:27.711Z,421.30
2019-02-21T10:12:27.692Z,426.86
2019-02-21T10:13:27.671Z,419.21
2019-02-21T10:14:27.654Z,405.87
2019-02-21T10:15:27.669Z,420.59
2019-02-21T10:16:27.632Z,426.56
2019-02-21T10:17:27.637Z,431.18
2019-02-21T10:18:27.621Z,429.03
2019-02-21T10:19:27.608Z,426.33
2019-02-21T10:20:27.595Z,436.43
2019-02-21T10:21:27.598Z,429.03
2019-02-21T10:22:27.572Z,419.83
2019-02-21T10:23:27.557Z,434.81
2019-02-21T10:24:27.542Z,425.58
2019-02-21T10:25:27.539Z,424.80
2019-02-21T10:26:27.548Z,417.97
2019-02-21T10:27:27.521Z,425.06
2019-02-21T10:28:27.502Z,423.00
2019-02-21T10:29:29.706Z,417.40
2019-02-21T10:30:27.486Z,418.57
2019-02-21T10:31:27.508Z,425.33
2019-02-21T10:32:27.460Z,403.16
2019-02-21T10:33:27.439Z,370.83
2019-02-21T10:34:27.426Z,394.12
2019-02-21T10:35:27.417Z,425.28
2019-02-21T10:36:27.432Z,413.03
2019-02-21T10:37:27.402Z,413.98
2019-02-21T10:38:27.413Z,419.79
2019-02-21T10:39:27.394Z,415.74
2019-02-21T10:40:27.375Z,398.59
2019-02-21T10:41:27.370Z,416.89
2019-02-21T10:42:27.350Z,416.87
2019-02-21T10:43:27.347Z,412.68
2019-02-21T10:44:27.355Z,424.73
2019-02-21T10:45:27.316Z,407.64
2019-02-21T10:46:27.325Z,404.08
2019-02-21T10:47:27.287Z,419.55
2019-02-21T10:48:27.278Z,414.91
2019-02-21T10:49:27.277Z,424.77
2019-02-21T10:50:27.265Z,415.98
2019-02-21T10:51:27.268Z,398.49
2019-02-21T10:52:27.256Z,427.08
2019-02-21T10:53:27.221Z,439.19
2019-02-21T10:54:27.207Z,381.49
2019-02-21T10:55:27.255Z,394.99
2019-02-21T10:56:27.235Z,393.45
2019-02-21T10:57:27.181Z,423.26
2019-02-21T10:58:27.176Z,407.75
2019-02-21T10:59:27.149Z,429.88
2019-02-21T11:00:27.149Z,394.41
2019-02-21T11:01:27.142Z,371.95
2019-02-21T11:02:27.157Z,366.37
2019-02-21T11:03:27.123Z,402.16
2019-02-21T11:04:27.112Z,411.04
2019-02-21T11:05:27.092Z,373.46
2019-02-21T11:06:27.079Z,388.38
2019-02-21T11:07:27.098Z,409.05
2019-02-21T11:08:27.056Z,390.74
2019-02-21T11:09:27.056Z,382.72
2019-02-21T11:10:27.063Z,383.92
2019-02-21T11:11:27.035Z,369.91
2019-02-21T11:12:27.020Z,382.67
2019-02-21T11:13:27.023Z,418.66
2019-02-21T11:14:26.995Z,412.68
2019-02-21T11:15:27.022Z,403.53
2019-02-21T11:16:26.985Z,397.83
2019-02-21T11:17:26.965Z,398.29
2019-02-21T11:18:26.956Z,377.52
2019-02-21T11:19:26.941Z,370.89
2019-02-21T11:20:26.925Z,397.19
2019-02-21T11:21:26.943Z,416.12
2019-02-21T11:22:26.914Z,408.98
2019-02-21T11:23:26.939Z,331.25
2019-02-21T11:24:26.895Z,400.44
2019-02-21T11:25:26.876Z,380.95
2019-02-21T11:26:26.861Z,337.76
2019-02-21T11:27:26.847Z,389.79
2019-02-21T11:28:26.842Z,394.52
2019-02-21T11:29:26.864Z,406.39
2019-02-21T11:30:26.823Z,370.14
2019-02-21T11:31:27.938Z,442.60
2019-02-21T11:32:26.998Z,392.56
2019-02-21T11:33:26.786Z,405.90
2019-02-21T11:34:26.800Z,406.63
2019-02-21T11:35:26.775Z,396.62
2019-02-21T11:36:26.759Z,384.10
2019-02-21T11:37:26.738Z,356.52
2019-02-21T11:38:26.724Z,419.15
2019-02-21T11:39:26.735Z,407.17
2019-02-21T11:40:26.718Z,415.03
2019-02-21T11:41:26.706Z,371.78
2019-02-21T11:42:26.696Z,420.79
2019-02-21T11:43:26.711Z,421.39
2019-02-21T11:44:26.695Z,418.32
2019-02-21T11:45:26.656Z,387.38
2019-02-21T11:46:26.645Z,416.03
2019-02-21T11:47:26.644Z,407.78
2019-02-21T11:48:26.661Z,425.51
2019-02-21T11:49:26.609Z,406.79
2019-02-21T11:50:26.597Z,393.58
2019-02-21T11:51:26.586Z,434.45
2019-02-21T11:52:26.575Z,380.92
2019-02-21T11:53:26.583Z,408.96
2019-02-21T11:54:27.469Z,426.35
2019-02-21T11:55:26.592Z,410.57
2019-02-21T11:56:26.541Z,389.82
2019-02-21T11:57:26.524Z,404.00
2019-02-21T11:58:26.512Z,423.98
2019-02-21T11:59:26.595Z,411.78
2019-02-21T12:00:26.483Z,397.00
2019-02-21T12:01:26.490Z,408.58
2019-02-21T12:02:26.476Z,438.83
2019-02-21T12:03:26.454Z,410.93
2019-02-21T12:04:26.446Z,418.67
2019-02-21T12:05:31.511Z,417.56
2019-02-21T12:06:27.428Z,417.14
2019-02-21T12:07:26.419Z,432.39
2019-02-21T12:08:26.408Z,425.44
2019-02-21T12:09:26.415Z,422.23
2019-02-21T12:10:26.377Z,432.96
2019-02-21T12:11:26.363Z,444.41
2019-02-21T12:12:26.355Z,396.74
2019-02-21T12:13:26.387Z,433.13
2019-02-21T12:14:26.335Z,425.67
2019-02-21T12:15:26.330Z,395.26
2019-02-21T12:16:26.337Z,440.37
2019-02-21T12:17:26.294Z,431.43
2019-02-21T12:18:26.291Z,437.28
2019-02-21T12:19:26.288Z,422.73
2019-02-21T12:20:26.303Z,446.37
2019-02-21T12:21:26.277Z,427.32
2019-02-21T12:22:26.236Z,443.06
2019-02-21T12:23:26.235Z,433.15
2019-02-21T12:24:26.276Z,437.04
2019-02-21T12:25:26.241Z,437.70
2019-02-21T12:26:26.235Z,445.41
2019-02-21T12:27:26.200Z,434.53
2019-02-21T12:28:26.182Z,428.55